sensor_id;sensor_type;location;lat;lon;timestamp;P1;durP1;ratioP1;P2;durP2;ratioP2
26858;SDS011;14429;48.346;16.338;2023-05-07T00:02:12;1.00;;;0.80;;
26858;SDS011;14429;48.346;16.338;2023-05-07T00:04:38;1.83;;;1.10;;
26858;SDS011;14429;48.346;16.338;2023-05-07T00:07:03;1.15;;;1.02;;
26858;SDS011;14429;48.346;16.338;2023-05-07T00:09:31;2.25;;;1.33;;
26858;SDS011;14429;48.346;16.338;2023-05-07T00:11:56;2.90;;;1.20;;
26858;SDS011;14429;48.346;16.338;2023-05-07T00:14:21;1.77;;;1.10;;
26858;SDS011;14429;48.346;16.338;2023-05-07T00:16:47;1.50;;;1.35;;
26858;SDS011;14429;48.346;16.338;2023-05-07T00:19:12;2.08;;;1.23;;
26858;SDS011;14429;48.346;16.338;2023-05-07T00:21:38;0.80;;;0.80;;
26858;SDS011;14429;48.346;16.338;2023-05-07T00:24:03;1.67;;;0.98;;
26858;SDS011;14429;48.346;16.338;2023-05-07T00:26:30;0.95;;;0.85;;
26858;SDS011;14429;48.346;16.338;2023-05-07T00:28:56;1.23;;;0.95;;
26858;SDS011;14429;48.346;16.338;2023-05-07T00:31:21;1.88;;;1.02;;
26858;SDS011;14429;48.346;16.338;2023-05-07T00:33:47;1.10;;;1.00;;
26858;SDS011;14429;48.346;16.338;2023-05-07T00:36:13;1.33;;;0.90;;
26858;SDS011;14429;48.346;16.338;2023-05-07T00:38:38;2.10;;;1.00;;
26858;SDS011;14429;48.346;16.338;2023-05-07T00:41:04;1.65;;;0.95;;
26858;SDS011;14429;48.346;16.338;2023-05-07T00:43:31;1.50;;;0.80;;
26858;SDS011;14429;48.346;16.338;2023-05-07T00:45:56;1.67;;;1.00;;
26858;SDS011;14429;48.346;16.338;2023-05-07T00:48:21;1.38;;;0.93;;
26858;SDS011;14429;48.346;16.338;2023-05-07T00:50:47;1.00;;;0.90;;
26858;SDS011;14429;48.346;16.338;2023-05-07T00:53:13;1.77;;;1.10;;
26858;SDS011;14429;48.346;16.338;2023-05-07T00:55:39;1.55;;;1.20;;
26858;SDS011;14429;48.346;16.338;2023-05-07T00:58:04;1.33;;;1.10;;
26858;SDS011;14429;48.346;16.338;2023-05-07T01:00:32;1.90;;;1.25;;
26858;SDS011;14429;48.346;16.338;2023-05-07T01:02:57;0.98;;;0.90;;
26858;SDS011;14429;48.346;16.338;2023-05-07T01:05:23;1.60;;;1.10;;
26858;SDS011;14429;48.346;16.338;2023-05-07T01:07:49;2.05;;;0.85;;
26858;SDS011;14429;48.346;16.338;2023-05-07T01:10:16;1.65;;;1.13;;
26858;SDS011;14429;48.346;16.338;2023-05-07T01:12:42;0.93;;;0.85;;
26858;SDS011;14429;48.346;16.338;2023-05-07T01:15:09;1.10;;;0.80;;
26858;SDS011;14429;48.346;16.338;2023-05-07T01:17:36;1.88;;;1.25;;
26858;SDS011;14429;48.346;16.338;2023-05-07T01:20:04;2.33;;;1.20;;
26858;SDS011;14429;48.346;16.338;2023-05-07T01:22:31;1.20;;;1.08;;
26858;SDS011;14429;48.346;16.338;2023-05-07T01:24:58;1.60;;;0.95;;
26858;SDS011;14429;48.346;16.338;2023-05-07T01:27:23;2.00;;;1.00;;
26858;SDS011;14429;48.346;16.338;2023-05-07T01:29:49;1.00;;;0.90;;
26858;SDS011;14429;48.346;16.338;2023-05-07T01:32:14;0.85;;;0.80;;
26858;SDS011;14429;48.346;16.338;2023-05-07T01:34:44;1.13;;;1.02;;
26858;SDS011;14429;48.346;16.338;2023-05-07T01:37:11;1.10;;;1.00;;
26858;SDS011;14429;48.346;16.338;2023-05-07T01:39:38;1.38;;;0.93;;
26858;SDS011;14429;48.346;16.338;2023-05-07T01:42:05;1.70;;;1.60;;
26858;SDS011;14429;48.346;16.338;2023-05-07T01:44:30;2.03;;;0.90;;
26858;SDS011;14429;48.346;16.338;2023-05-07T01:46:56;0.85;;;0.80;;
26858;SDS011;14429;48.346;16.338;2023-05-07T01:49:22;3.42;;;1.00;;
26858;SDS011;14429;48.346;16.338;2023-05-07T01:51:48;2.47;;;1.10;;
26858;SDS011;14429;48.346;16.338;2023-05-07T01:54:13;2.08;;;1.80;;
26858;SDS011;14429;48.346;16.338;2023-05-07T01:56:40;2.47;;;1.17;;
26858;SDS011;14429;48.346;16.338;2023-05-07T01:59:06;1.80;;;1.08;;
26858;SDS011;14429;48.346;16.338;2023-05-07T02:01:31;1.63;;;1.05;;
26858;SDS011;14429;48.346;16.338;2023-05-07T02:03:56;2.58;;;1.63;;
26858;SDS011;14429;48.346;16.338;2023-05-07T02:06:22;2.38;;;1.25;;
26858;SDS011;14429;48.346;16.338;2023-05-07T02:08:47;2.70;;;1.23;;
26858;SDS011;14429;48.346;16.338;2023-05-07T02:11:13;1.02;;;0.93;;
26858;SDS011;14429;48.346;16.338;2023-05-07T02:13:40;1.05;;;0.80;;
26858;SDS011;14429;48.346;16.338;2023-05-07T02:16:05;1.58;;;1.05;;
26858;SDS011;14429;48.346;16.338;2023-05-07T02:18:31;1.08;;;0.98;;
26858;SDS011;14429;48.346;16.338;2023-05-07T02:20:56;1.10;;;1.00;;
26858;SDS011;14429;48.346;16.338;2023-05-07T02:23:22;2.00;;;1.70;;
26858;SDS011;14429;48.346;16.338;2023-05-07T02:25:47;3.63;;;2.53;;
26858;SDS011;14429;48.346;16.338;2023-05-07T02:28:12;1.63;;;1.02;;
26858;SDS011;14429;48.346;16.338;2023-05-07T02:30:39;1.58;;;1.05;;
26858;SDS011;14429;48.346;16.338;2023-05-07T02:33:05;1.98;;;1.42;;
26858;SDS011;14429;48.346;16.338;2023-05-07T02:35:30;1.60;;;1.20;;
26858;SDS011;14429;48.346;16.338;2023-05-07T02:37:55;1.25;;;1.00;;
26858;SDS011;14429;48.346;16.338;2023-05-07T02:40:21;1.35;;;1.17;;
26858;SDS011;14429;48.346;16.338;2023-05-07T02:42:47;1.30;;;0.93;;
26858;SDS011;14429;48.346;16.338;2023-05-07T02:45:12;2.00;;;1.15;;
26858;SDS011;14429;48.346;16.338;2023-05-07T02:47:39;1.60;;;1.02;;
26858;SDS011;14429;48.346;16.338;2023-05-07T02:50:06;1.77;;;1.10;;
26858;SDS011;14429;48.346;16.338;2023-05-07T02:52:32;2.35;;;1.55;;
26858;SDS011;14429;48.346;16.338;2023-05-07T02:54:57;1.00;;;0.95;;
26858;SDS011;14429;48.346;16.338;2023-05-07T02:57:23;2.40;;;1.17;;
26858;SDS011;14429;48.346;16.338;2023-05-07T02:59:48;1.23;;;1.02;;
26858;SDS011;14429;48.346;16.338;2023-05-07T03:02:14;1.10;;;0.90;;
26858;SDS011;14429;48.346;16.338;2023-05-07T03:04:40;1.67;;;1.10;;
26858;SDS011;14429;48.346;16.338;2023-05-07T03:07:06;1.52;;;1.08;;
26858;SDS011;14429;48.346;16.338;2023-05-07T03:09:31;3.65;;;2.58;;
26858;SDS011;14429;48.346;16.338;2023-05-07T03:11:57;1.80;;;1.10;;
26858;SDS011;14429;48.346;16.338;2023-05-07T03:14:22;2.08;;;1.23;;
26858;SDS011;14429;48.346;16.338;2023-05-07T03:16:48;1.42;;;1.10;;
26858;SDS011;14429;48.346;16.338;2023-05-07T03:19:13;1.10;;;1.00;;
26858;SDS011;14429;48.346;16.338;2023-05-07T03:21:40;2.35;;;1.80;;
26858;SDS011;14429;48.346;16.338;2023-05-07T03:24:06;1.75;;;0.90;;
26858;SDS011;14429;48.346;16.338;2023-05-07T03:26:31;1.05;;;0.90;;
26858;SDS011;14429;48.346;16.338;2023-05-07T03:28:57;1.50;;;1.30;;
26858;SDS011;14429;48.346;16.338;2023-05-07T03:31:22;1.63;;;0.98;;
26858;SDS011;14429;48.346;16.338;2023-05-07T03:33:51;3.55;;;2.30;;
26858;SDS011;14429;48.346;16.338;2023-05-07T03:36:18;4.70;;;2.95;;
26858;SDS011;14429;48.346;16.338;2023-05-07T03:38:45;1.08;;;0.80;;
26858;SDS011;14429;48.346;16.338;2023-05-07T03:41:10;1.25;;;0.90;;
26858;SDS011;14429;48.346;16.338;2023-05-07T03:43:36;2.05;;;1.33;;
26858;SDS011;14429;48.346;16.338;2023-05-07T03:46:01;2.33;;;1.38;;
26858;SDS011;14429;48.346;16.338;2023-05-07T03:48:27;4.55;;;1.55;;
26858;SDS011;14429;48.346;16.338;2023-05-07T03:50:52;2.45;;;1.40;;
26858;SDS011;14429;48.346;16.338;2023-05-07T03:53:18;2.60;;;1.38;;
26858;SDS011;14429;48.346;16.338;2023-05-07T03:55:44;10.73;;;5.20;;
26858;SDS011;14429;48.346;16.338;2023-05-07T03:58:10;2.53;;;1.30;;
26858;SDS011;14429;48.346;16.338;2023-05-07T04:00:35;1.50;;;1.20;;
26858;SDS011;14429;48.346;16.338;2023-05-07T04:03:04;0.95;;;0.93;;
26858;SDS011;14429;48.346;16.338;2023-05-07T04:05:29;1.85;;;1.13;;
26858;SDS011;14429;48.346;16.338;2023-05-07T04:07:55;1.90;;;1.40;;
26858;SDS011;14429;48.346;16.338;2023-05-07T04:10:20;1.40;;;1.20;;
26858;SDS011;14429;48.346;16.338;2023-05-07T04:12:47;1.20;;;1.10;;
26858;SDS011;14429;48.346;16.338;2023-05-07T04:15:12;2.33;;;1.33;;
26858;SDS011;14429;48.346;16.338;2023-05-07T04:17:38;1.63;;;1.13;;
26858;SDS011;14429;48.346;16.338;2023-05-07T04:20:04;1.85;;;1.20;;
26858;SDS011;14429;48.346;16.338;2023-05-07T04:22:33;2.05;;;1.25;;
26858;SDS011;14429;48.346;16.338;2023-05-07T04:24:59;2.28;;;1.55;;
26858;SDS011;14429;48.346;16.338;2023-05-07T04:27:24;1.20;;;1.00;;
26858;SDS011;14429;48.346;16.338;2023-05-07T04:29:51;1.85;;;1.20;;
26858;SDS011;14429;48.346;16.338;2023-05-07T04:32:16;3.53;;;1.63;;
26858;SDS011;14429;48.346;16.338;2023-05-07T04:34:42;2.47;;;1.52;;
26858;SDS011;14429;48.346;16.338;2023-05-07T04:37:07;1.95;;;1.42;;
26858;SDS011;14429;48.346;16.338;2023-05-07T04:39:33;1.60;;;1.45;;
26858;SDS011;14429;48.346;16.338;2023-05-07T04:41:58;2.20;;;1.50;;
26858;SDS011;14429;48.346;16.338;2023-05-07T04:44:24;2.55;;;1.50;;
26858;SDS011;14429;48.346;16.338;2023-05-07T04:46:50;1.98;;;1.55;;
26858;SDS011;14429;48.346;16.338;2023-05-07T04:49:16;3.08;;;1.52;;
26858;SDS011;14429;48.346;16.338;2023-05-07T04:51:41;2.40;;;2.00;;
26858;SDS011;14429;48.346;16.338;2023-05-07T04:54:09;2.58;;;1.50;;
26858;SDS011;14429;48.346;16.338;2023-05-07T04:56:35;2.17;;;1.23;;
26858;SDS011;14429;48.346;16.338;2023-05-07T04:59:03;5.93;;;3.67;;
26858;SDS011;14429;48.346;16.338;2023-05-07T05:01:28;1.98;;;1.52;;
26858;SDS011;14429;48.346;16.338;2023-05-07T05:03:55;2.55;;;1.65;;
26858;SDS011;14429;48.346;16.338;2023-05-07T05:06:20;1.73;;;1.42;;
26858;SDS011;14429;48.346;16.338;2023-05-07T05:08:46;2.58;;;1.70;;
26858;SDS011;14429;48.346;16.338;2023-05-07T05:11:11;2.60;;;1.60;;
26858;SDS011;14429;48.346;16.338;2023-05-07T05:13:37;3.08;;;1.90;;
26858;SDS011;14429;48.346;16.338;2023-05-07T05:16:02;2.63;;;2.05;;
26858;SDS011;14429;48.346;16.338;2023-05-07T05:18:28;1.98;;;1.48;;
26858;SDS011;14429;48.346;16.338;2023-05-07T05:20:55;1.58;;;1.30;;
26858;SDS011;14429;48.346;16.338;2023-05-07T05:23:20;2.35;;;1.40;;
26858;SDS011;14429;48.346;16.338;2023-05-07T05:25:46;4.90;;;2.70;;
26858;SDS011;14429;48.346;16.338;2023-05-07T05:28:11;3.38;;;1.70;;
26858;SDS011;14429;48.346;16.338;2023-05-07T05:30:36;3.90;;;2.05;;
26858;SDS011;14429;48.346;16.338;2023-05-07T05:33:02;1.80;;;1.48;;
26858;SDS011;14429;48.346;16.338;2023-05-07T05:35:27;2.50;;;1.65;;
26858;SDS011;14429;48.346;16.338;2023-05-07T05:37:55;4.38;;;1.80;;
26858;SDS011;14429;48.346;16.338;2023-05-07T05:40:21;10.73;;;5.20;;
26858;SDS011;14429;48.346;16.338;2023-05-07T05:42:46;7.68;;;4.88;;
26858;SDS011;14429;48.346;16.338;2023-05-07T05:45:12;3.40;;;2.08;;
26858;SDS011;14429;48.346;16.338;2023-05-07T05:47:37;1.75;;;1.27;;
26858;SDS011;14429;48.346;16.338;2023-05-07T05:50:03;2.58;;;1.65;;
26858;SDS011;14429;48.346;16.338;2023-05-07T05:52:29;2.33;;;1.65;;
26858;SDS011;14429;48.346;16.338;2023-05-07T05:54:56;2.08;;;1.42;;
26858;SDS011;14429;48.346;16.338;2023-05-07T05:57:22;2.55;;;1.67;;
26858;SDS011;14429;48.346;16.338;2023-05-07T05:59:47;3.92;;;2.30;;
26858;SDS011;14429;48.346;16.338;2023-05-07T06:02:13;2.22;;;1.80;;
26858;SDS011;14429;48.346;16.338;2023-05-07T06:04:38;3.08;;;2.13;;
26858;SDS011;14429;48.346;16.338;2023-05-07T06:07:04;4.40;;;1.98;;
26858;SDS011;14429;48.346;16.338;2023-05-07T06:09:30;4.07;;;1.85;;
26858;SDS011;14429;48.346;16.338;2023-05-07T06:11:56;8.23;;;4.85;;
26858;SDS011;14429;48.346;16.338;2023-05-07T06:14:22;5.93;;;3.45;;
26858;SDS011;14429;48.346;16.338;2023-05-07T06:16:47;4.00;;;2.20;;
26858;SDS011;14429;48.346;16.338;2023-05-07T06:19:13;3.17;;;1.88;;
26858;SDS011;14429;48.346;16.338;2023-05-07T06:21:38;2.42;;;1.80;;
26858;SDS011;14429;48.346;16.338;2023-05-07T06:24:04;4.53;;;2.20;;
26858;SDS011;14429;48.346;16.338;2023-05-07T06:26:30;6.82;;;4.35;;
26858;SDS011;14429;48.346;16.338;2023-05-07T06:28:57;5.53;;;3.42;;
26858;SDS011;14429;48.346;16.338;2023-05-07T06:31:22;3.22;;;2.13;;
26858;SDS011;14429;48.346;16.338;2023-05-07T06:33:48;2.92;;;2.33;;
26858;SDS011;14429;48.346;16.338;2023-05-07T06:36:14;16.67;;;8.50;;
26858;SDS011;14429;48.346;16.338;2023-05-07T06:38:39;2.97;;;2.10;;
26858;SDS011;14429;48.346;16.338;2023-05-07T06:41:05;3.72;;;2.00;;
26858;SDS011;14429;48.346;16.338;2023-05-07T06:43:31;4.07;;;2.13;;
26858;SDS011;14429;48.346;16.338;2023-05-07T06:45:57;2.15;;;1.85;;
26858;SDS011;14429;48.346;16.338;2023-05-07T06:48:23;2.67;;;2.10;;
26858;SDS011;14429;48.346;16.338;2023-05-07T06:50:48;2.90;;;2.10;;
26858;SDS011;14429;48.346;16.338;2023-05-07T06:53:14;2.55;;;2.00;;
26858;SDS011;14429;48.346;16.338;2023-05-07T06:55:39;2.28;;;1.50;;
26858;SDS011;14429;48.346;16.338;2023-05-07T06:58:05;2.28;;;1.80;;
26858;SDS011;14429;48.346;16.338;2023-05-07T07:00:30;20.83;;;10.80;;
26858;SDS011;14429;48.346;16.338;2023-05-07T07:02:57;4.05;;;2.58;;
26858;SDS011;14429;48.346;16.338;2023-05-07T07:05:23;4.35;;;2.75;;
26858;SDS011;14429;48.346;16.338;2023-05-07T07:07:48;6.22;;;3.15;;
26858;SDS011;14429;48.346;16.338;2023-05-07T07:10:15;19.08;;;10.77;;
26858;SDS011;14429;48.346;16.338;2023-05-07T07:12:40;23.73;;;10.63;;
26858;SDS011;14429;48.346;16.338;2023-05-07T07:15:06;14.80;;;7.50;;
26858;SDS011;14429;48.346;16.338;2023-05-07T07:17:32;16.25;;;9.27;;
26858;SDS011;14429;48.346;16.338;2023-05-07T07:19:59;22.80;;;10.45;;
26858;SDS011;14429;48.346;16.338;2023-05-07T07:22:24;7.30;;;3.55;;
26858;SDS011;14429;48.346;16.338;2023-05-07T07:24:49;5.75;;;3.33;;
26858;SDS011;14429;48.346;16.338;2023-05-07T07:27:15;18.35;;;8.98;;
26858;SDS011;14429;48.346;16.338;2023-05-07T07:29:40;16.55;;;9.30;;
26858;SDS011;14429;48.346;16.338;2023-05-07T07:32:06;18.10;;;9.18;;
26858;SDS011;14429;48.346;16.338;2023-05-07T07:34:31;12.48;;;6.75;;
26858;SDS011;14429;48.346;16.338;2023-05-07T07:36:58;15.45;;;8.43;;
26858;SDS011;14429;48.346;16.338;2023-05-07T07:39:23;15.07;;;8.52;;
26858;SDS011;14429;48.346;16.338;2023-05-07T07:41:49;16.88;;;9.93;;
26858;SDS011;14429;48.346;16.338;2023-05-07T07:44:14;23.80;;;9.80;;
26858;SDS011;14429;48.346;16.338;2023-05-07T07:46:39;8.88;;;5.68;;
26858;SDS011;14429;48.346;16.338;2023-05-07T07:49:05;23.63;;;13.05;;
26858;SDS011;14429;48.346;16.338;2023-05-07T07:51:30;10.02;;;6.32;;
26858;SDS011;14429;48.346;16.338;2023-05-07T07:53:57;18.15;;;8.93;;
26858;SDS011;14429;48.346;16.338;2023-05-07T07:56:22;16.45;;;9.20;;
26858;SDS011;14429;48.346;16.338;2023-05-07T07:58:48;15.85;;;9.75;;
26858;SDS011;14429;48.346;16.338;2023-05-07T08:01:13;18.55;;;9.27;;
26858;SDS011;14429;48.346;16.338;2023-05-07T08:03:39;14.85;;;7.90;;
26858;SDS011;14429;48.346;16.338;2023-05-07T08:06:04;7.15;;;3.90;;
26858;SDS011;14429;48.346;16.338;2023-05-07T08:08:30;11.95;;;7.03;;
26858;SDS011;14429;48.346;16.338;2023-05-07T08:10:56;11.77;;;6.63;;
26858;SDS011;14429;48.346;16.338;2023-05-07T08:13:22;17.20;;;7.80;;
26858;SDS011;14429;48.346;16.338;2023-05-07T08:15:47;7.72;;;4.90;;
26858;SDS011;14429;48.346;16.338;2023-05-07T08:18:13;5.18;;;3.00;;
26858;SDS011;14429;48.346;16.338;2023-05-07T08:20:38;5.65;;;3.60;;
26858;SDS011;14429;48.346;16.338;2023-05-07T08:23:04;5.93;;;3.70;;
26858;SDS011;14429;48.346;16.338;2023-05-07T08:25:29;12.25;;;7.72;;
26858;SDS011;14429;48.346;16.338;2023-05-07T08:27:56;16.42;;;8.55;;
26858;SDS011;14429;48.346;16.338;2023-05-07T08:30:21;17.80;;;9.27;;
26858;SDS011;14429;48.346;16.338;2023-05-07T08:32:47;11.65;;;5.50;;
26858;SDS011;14429;48.346;16.338;2023-05-07T08:35:12;11.75;;;6.65;;
26858;SDS011;14429;48.346;16.338;2023-05-07T08:37:37;14.10;;;8.13;;
26858;SDS011;14429;48.346;16.338;2023-05-07T08:40:03;15.18;;;7.97;;
26858;SDS011;14429;48.346;16.338;2023-05-07T08:42:29;13.63;;;7.85;;
26858;SDS011;14429;48.346;16.338;2023-05-07T08:44:59;12.57;;;8.00;;
26858;SDS011;14429;48.346;16.338;2023-05-07T08:47:26;13.18;;;7.47;;
26858;SDS011;14429;48.346;16.338;2023-05-07T08:49:55;11.50;;;6.30;;
26858;SDS011;14429;48.346;16.338;2023-05-07T08:52:21;12.85;;;7.43;;
26858;SDS011;14429;48.346;16.338;2023-05-07T08:54:47;20.08;;;8.57;;
26858;SDS011;14429;48.346;16.338;2023-05-07T08:57:12;13.82;;;7.10;;
26858;SDS011;14429;48.346;16.338;2023-05-07T08:59:40;16.08;;;8.23;;
26858;SDS011;14429;48.346;16.338;2023-05-07T09:02:07;12.23;;;7.70;;
26858;SDS011;14429;48.346;16.338;2023-05-07T09:04:35;12.95;;;7.70;;
26858;SDS011;14429;48.346;16.338;2023-05-07T09:07:00;10.63;;;5.32;;
26858;SDS011;14429;48.346;16.338;2023-05-07T09:09:25;10.88;;;6.00;;
26858;SDS011;14429;48.346;16.338;2023-05-07T09:11:56;8.43;;;4.53;;
26858;SDS011;14429;48.346;16.338;2023-05-07T09:14:22;10.35;;;6.45;;
26858;SDS011;14429;48.346;16.338;2023-05-07T09:16:47;5.35;;;3.28;;
26858;SDS011;14429;48.346;16.338;2023-05-07T09:19:14;13.15;;;6.90;;
26858;SDS011;14429;48.346;16.338;2023-05-07T09:21:39;10.85;;;6.53;;
26858;SDS011;14429;48.346;16.338;2023-05-07T09:24:05;13.27;;;7.18;;
26858;SDS011;14429;48.346;16.338;2023-05-07T09:26:31;13.20;;;6.85;;
26858;SDS011;14429;48.346;16.338;2023-05-07T09:28:56;11.82;;;6.35;;
26858;SDS011;14429;48.346;16.338;2023-05-07T09:31:22;14.80;;;7.05;;
26858;SDS011;14429;48.346;16.338;2023-05-07T09:33:47;13.82;;;6.50;;
26858;SDS011;14429;48.346;16.338;2023-05-07T09:36:14;5.38;;;3.28;;
26858;SDS011;14429;48.346;16.338;2023-05-07T09:38:40;13.65;;;7.07;;
26858;SDS011;14429;48.346;16.338;2023-05-07T09:41:06;12.27;;;7.03;;
26858;SDS011;14429;48.346;16.338;2023-05-07T09:43:32;14.57;;;7.45;;
26858;SDS011;14429;48.346;16.338;2023-05-07T09:46:01;11.10;;;6.10;;
26858;SDS011;14429;48.346;16.338;2023-05-07T09:48:28;11.88;;;6.47;;
26858;SDS011;14429;48.346;16.338;2023-05-07T09:50:55;4.72;;;3.65;;
26858;SDS011;14429;48.346;16.338;2023-05-07T09:53:27;13.23;;;6.97;;
26858;SDS011;14429;48.346;16.338;2023-05-07T09:55:55;17.67;;;8.40;;
26858;SDS011;14429;48.346;16.338;2023-05-07T09:58:22;4.53;;;2.95;;
26858;SDS011;14429;48.346;16.338;2023-05-07T10:00:48;14.68;;;6.25;;
26858;SDS011;14429;48.346;16.338;2023-05-07T10:03:15;10.45;;;6.97;;
26858;SDS011;14429;48.346;16.338;2023-05-07T10:05:42;16.02;;;7.68;;
26858;SDS011;14429;48.346;16.338;2023-05-07T10:08:08;23.58;;;8.25;;
26858;SDS011;14429;48.346;16.338;2023-05-07T10:10:36;7.22;;;4.30;;
26858;SDS011;14429;48.346;16.338;2023-05-07T10:13:02;13.50;;;6.65;;
26858;SDS011;14429;48.346;16.338;2023-05-07T10:15:28;13.13;;;6.57;;
26858;SDS011;14429;48.346;16.338;2023-05-07T10:17:54;13.35;;;7.03;;
26858;SDS011;14429;48.346;16.338;2023-05-07T10:20:21;11.55;;;7.30;;
26858;SDS011;14429;48.346;16.338;2023-05-07T10:22:47;9.18;;;5.55;;
26858;SDS011;14429;48.346;16.338;2023-05-07T10:25:16;13.07;;;6.80;;
26858;SDS011;14429;48.346;16.338;2023-05-07T10:27:47;8.60;;;5.00;;
26858;SDS011;14429;48.346;16.338;2023-05-07T10:30:15;9.18;;;5.63;;
26858;SDS011;14429;48.346;16.338;2023-05-07T10:32:53;12.55;;;6.15;;
26858;SDS011;14429;48.346;16.338;2023-05-07T10:35:21;13.60;;;7.13;;
26858;SDS011;14429;48.346;16.338;2023-05-07T10:37:49;10.60;;;6.90;;
26858;SDS011;14429;48.346;16.338;2023-05-07T10:40:15;10.80;;;6.80;;
26858;SDS011;14429;48.346;16.338;2023-05-07T10:42:54;11.43;;;6.00;;
26858;SDS011;14429;48.346;16.338;2023-05-07T10:45:20;10.93;;;6.63;;
26858;SDS011;14429;48.346;16.338;2023-05-07T10:48:05;12.88;;;6.40;;
26858;SDS011;14429;48.346;16.338;2023-05-07T10:50:31;11.27;;;6.18;;
26858;SDS011;14429;48.346;16.338;2023-05-07T10:58:52;13.10;;;6.65;;
26858;SDS011;14429;48.346;16.338;2023-05-07T11:01:25;13.48;;;6.50;;
26858;SDS011;14429;48.346;16.338;2023-05-07T11:04:17;10.35;;;5.93;;
26858;SDS011;14429;48.346;16.338;2023-05-07T11:06:47;13.00;;;6.38;;
26858;SDS011;14429;48.346;16.338;2023-05-07T11:09:54;9.68;;;5.63;;
26858;SDS011;14429;48.346;16.338;2023-05-07T11:12:50;10.75;;;5.88;;
26858;SDS011;14429;48.346;16.338;2023-05-07T11:18:17;9.90;;;5.28;;
26858;SDS011;14429;48.346;16.338;2023-05-07T11:20:44;9.10;;;5.28;;
26858;SDS011;14429;48.346;16.338;2023-05-07T11:26:20;12.55;;;5.97;;
26858;SDS011;14429;48.346;16.338;2023-05-07T11:28:48;10.23;;;5.93;;
26858;SDS011;14429;48.346;16.338;2023-05-07T11:31:13;10.65;;;5.30;;
26858;SDS011;14429;48.346;16.338;2023-05-07T11:33:39;17.50;;;6.65;;
26858;SDS011;14429;48.346;16.338;2023-05-07T11:36:05;10.43;;;5.88;;
26858;SDS011;14429;48.346;16.338;2023-05-07T11:38:34;10.95;;;5.85;;
26858;SDS011;14429;48.346;16.338;2023-05-07T11:41:01;9.38;;;5.97;;
26858;SDS011;14429;48.346;16.338;2023-05-07T11:43:26;8.98;;;5.55;;
26858;SDS011;14429;48.346;16.338;2023-05-07T11:45:53;10.85;;;5.10;;
26858;SDS011;14429;48.346;16.338;2023-05-07T11:48:20;10.80;;;5.53;;
26858;SDS011;14429;48.346;16.338;2023-05-07T11:50:50;10.85;;;5.57;;
26858;SDS011;14429;48.346;16.338;2023-05-07T11:53:15;9.63;;;5.40;;
26858;SDS011;14429;48.346;16.338;2023-05-07T11:55:41;9.63;;;5.35;;
26858;SDS011;14429;48.346;16.338;2023-05-07T11:58:07;9.93;;;5.60;;
26858;SDS011;14429;48.346;16.338;2023-05-07T12:00:35;7.70;;;4.30;;
26858;SDS011;14429;48.346;16.338;2023-05-07T12:03:04;8.57;;;4.68;;
26858;SDS011;14429;48.346;16.338;2023-05-07T12:05:30;10.25;;;4.90;;
26858;SDS011;14429;48.346;16.338;2023-05-07T12:07:56;9.40;;;4.88;;
26858;SDS011;14429;48.346;16.338;2023-05-07T12:10:21;8.85;;;4.65;;
26858;SDS011;14429;48.346;16.338;2023-05-07T12:12:47;6.90;;;3.75;;
26858;SDS011;14429;48.346;16.338;2023-05-07T12:15:15;8.02;;;4.78;;
26858;SDS011;14429;48.346;16.338;2023-05-07T12:17:41;5.00;;;3.70;;
26858;SDS011;14429;48.346;16.338;2023-05-07T12:20:08;5.88;;;3.97;;
26858;SDS011;14429;48.346;16.338;2023-05-07T12:22:35;10.23;;;4.90;;
26858;SDS011;14429;48.346;16.338;2023-05-07T12:25:01;9.10;;;4.90;;
26858;SDS011;14429;48.346;16.338;2023-05-07T12:27:26;9.52;;;4.85;;
26858;SDS011;14429;48.346;16.338;2023-05-07T12:29:52;7.15;;;4.88;;
26858;SDS011;14429;48.346;16.338;2023-05-07T12:32:17;7.75;;;4.55;;
26858;SDS011;14429;48.346;16.338;2023-05-07T12:34:44;9.20;;;4.45;;
26858;SDS011;14429;48.346;16.338;2023-05-07T12:37:11;8.00;;;5.43;;
26858;SDS011;14429;48.346;16.338;2023-05-07T12:39:37;7.32;;;4.68;;
26858;SDS011;14429;48.346;16.338;2023-05-07T12:42:02;5.88;;;3.90;;
26858;SDS011;14429;48.346;16.338;2023-05-07T12:44:29;5.80;;;3.83;;
26858;SDS011;14429;48.346;16.338;2023-05-07T12:46:55;8.95;;;4.57;;
26858;SDS011;14429;48.346;16.338;2023-05-07T12:49:21;6.15;;;4.60;;
26858;SDS011;14429;48.346;16.338;2023-05-07T12:51:48;8.38;;;4.30;;
26858;SDS011;14429;48.346;16.338;2023-05-07T12:54:15;6.55;;;3.95;;
26858;SDS011;14429;48.346;16.338;2023-05-07T12:56:59;8.63;;;4.60;;
26858;SDS011;14429;48.346;16.338;2023-05-07T12:59:30;7.30;;;3.85;;
26858;SDS011;14429;48.346;16.338;2023-05-07T13:01:56;11.85;;;4.03;;
26858;SDS011;14429;48.346;16.338;2023-05-07T13:04:23;5.90;;;3.63;;
26858;SDS011;14429;48.346;16.338;2023-05-07T13:06:49;4.88;;;3.63;;
26858;SDS011;14429;48.346;16.338;2023-05-07T13:09:16;5.30;;;3.75;;
26858;SDS011;14429;48.346;16.338;2023-05-07T13:11:41;8.75;;;4.00;;
26858;SDS011;14429;48.346;16.338;2023-05-07T13:14:06;5.20;;;3.53;;
26858;SDS011;14429;48.346;16.338;2023-05-07T13:16:32;7.88;;;3.92;;
26858;SDS011;14429;48.346;16.338;2023-05-07T13:18:57;5.03;;;3.85;;
26858;SDS011;14429;48.346;16.338;2023-05-07T13:21:23;6.93;;;3.47;;
26858;SDS011;14429;48.346;16.338;2023-05-07T13:23:48;4.72;;;3.25;;
26858;SDS011;14429;48.346;16.338;2023-05-07T13:26:15;6.72;;;3.45;;
26858;SDS011;14429;48.346;16.338;2023-05-07T13:28:40;8.73;;;3.25;;
26858;SDS011;14429;48.346;16.338;2023-05-07T13:31:06;4.63;;;3.05;;
26858;SDS011;14429;48.346;16.338;2023-05-07T13:33:31;4.80;;;3.22;;
26858;SDS011;14429;48.346;16.338;2023-05-07T13:35:57;7.93;;;4.35;;
26858;SDS011;14429;48.346;16.338;2023-05-07T13:38:22;6.97;;;3.40;;
26858;SDS011;14429;48.346;16.338;2023-05-07T13:40:48;5.07;;;3.42;;
26858;SDS011;14429;48.346;16.338;2023-05-07T13:43:14;5.15;;;3.75;;
26858;SDS011;14429;48.346;16.338;2023-05-07T13:45:40;5.38;;;3.10;;
26858;SDS011;14429;48.346;16.338;2023-05-07T13:48:05;5.20;;;2.80;;
26858;SDS011;14429;48.346;16.338;2023-05-07T13:50:31;5.30;;;3.47;;
26858;SDS011;14429;48.346;16.338;2023-05-07T13:52:56;6.25;;;3.25;;
26858;SDS011;14429;48.346;16.338;2023-05-07T13:55:24;7.03;;;2.67;;
26858;SDS011;14429;48.346;16.338;2023-05-07T13:57:54;5.85;;;3.45;;
26858;SDS011;14429;48.346;16.338;2023-05-07T14:00:22;5.57;;;3.53;;
26858;SDS011;14429;48.346;16.338;2023-05-07T14:02:47;5.60;;;3.28;;
26858;SDS011;14429;48.346;16.338;2023-05-07T14:05:13;7.35;;;2.85;;
26858;SDS011;14429;48.346;16.338;2023-05-07T14:07:38;4.38;;;2.58;;
26858;SDS011;14429;48.346;16.338;2023-05-07T14:10:04;5.30;;;3.08;;
26858;SDS011;14429;48.346;16.338;2023-05-07T14:12:31;3.88;;;2.53;;
26858;SDS011;14429;48.346;16.338;2023-05-07T14:14:56;4.13;;;2.65;;
26858;SDS011;14429;48.346;16.338;2023-05-07T14:17:23;4.70;;;3.17;;
26858;SDS011;14429;48.346;16.338;2023-05-07T14:19:48;5.47;;;2.83;;
26858;SDS011;14429;48.346;16.338;2023-05-07T14:22:14;5.57;;;2.80;;
26858;SDS011;14429;48.346;16.338;2023-05-07T14:24:39;3.65;;;2.60;;
26858;SDS011;14429;48.346;16.338;2023-05-07T14:27:05;6.88;;;3.08;;
26858;SDS011;14429;48.346;16.338;2023-05-07T14:29:30;5.57;;;3.58;;
26858;SDS011;14429;48.346;16.338;2023-05-07T14:31:56;4.55;;;2.95;;
26858;SDS011;14429;48.346;16.338;2023-05-07T14:34:23;3.90;;;2.55;;
26858;SDS011;14429;48.346;16.338;2023-05-07T14:36:48;3.72;;;2.85;;
26858;SDS011;14429;48.346;16.338;2023-05-07T14:39:13;3.28;;;2.53;;